Time;durP1;ratioP1;P1;durP2;ratioP2;P2;SDS_P1;SDS_P2;PMS_P1;PMS_P2;Temp;Humidity;BMP_temperature;BMP_pressure;BME280_temperature;BME280_humidity;BME280_pressure;Samples;Min_cycle;Max_cycle;Signal;HPM_P1;HPM_P2
2021/04/15 00:01:25;;;;;;;5.30;3.92;;;6.20;61.90;;;;;;5040040;28;20056;-73
2021/04/15 00:03:51;;;;;;;5.38;4.28;;;6.20;63.10;;;;;;5039966;28;20030;-73
2021/04/15 00:06:20;;;;;;;7.03;4.88;;;6.10;62.50;;;;;;5039550;28;20409;-73
2021/04/15 00:08:47;;;;;;;11.32;4.25;;;6.10;63.90;;;;;;5039506;28;20025;-73
2021/04/15 00:11:16;;;;;;;5.50;4.18;;;6.10;64.00;;;;;;5039906;28;20075;-73
2021/04/15 00:13:50;;;;;;;8.50;4.00;;;6.10;63.10;;;;;;5039715;28;20026;-73
2021/04/15 00:16:16;;;;;;;6.95;4.05;;;6.10;64.90;;;;;;5039780;28;20071;-73
2021/04/15 00:18:42;;;;;;;7.60;4.68;;;6.00;66.60;;;;;;5039592;28;20026;-73
2021/04/15 00:21:10;;;;;;;6.95;4.82;;;6.00;63.10;;;;;;5039382;28;20040;-73
2021/04/15 00:23:36;;;;;;;9.32;5.30;;;6.10;60.80;;;;;;5039564;28;20045;-73
2021/04/15 00:26:02;;;;;;;7.43;4.90;;;6.20;62.60;;;;;;5039024;28;20453;-73
2021/04/15 00:28:28;;;;;;;6.53;4.50;;;6.30;62.10;;;;;;5039472;28;20325;-73
2021/04/15 00:30:54;;;;;;;5.47;4.47;;;6.30;62.80;;;;;;5039219;28;20021;-73
2021/04/15 00:33:21;;;;;;;7.43;5.13;;;6.30;64.50;;;;;;5039336;28;20021;-73
2021/04/15 00:35:47;;;;;;;7.90;4.70;;;6.40;60.60;;;;;;5039345;28;20026;-73
2021/04/15 00:38:14;;;;;;;6.30;4.28;;;6.40;62.00;;;;;;5039026;28;20112;-73
2021/04/15 00:40:43;;;;;;;8.68;4.38;;;6.40;60.20;;;;;;5039004;28;20037;-73
2021/04/15 00:43:10;;;;;;;7.00;4.72;;;6.50;60.30;;;;;;5038886;28;20109;-73
2021/04/15 00:45:41;;;;;;;7.38;4.35;;;6.40;61.80;;;;;;5039099;28;20025;-73
2021/04/15 00:48:24;;;;;;;6.60;4.03;;;6.40;61.50;;;;;;5038735;28;20037;-73
2021/04/15 00:51:00;;;;;;;6.68;4.75;;;6.40;62.30;;;;;;5039143;28;20037;-73
2021/04/15 00:53:38;;;;;;;;;;;6.20;64.10;;;;;;5039408;28;20034;-73
2021/04/15 00:56:04;;;;;;;6.50;5.03;;;6.20;64.70;;;;;;5039010;28;19928;-73
2021/04/15 00:58:31;;;;;;;6.97;4.05;;;6.10;65.70;;;;;;5038953;28;20025;-73
2021/04/15 01:00:58;;;;;;;10.00;6.97;;;6.00;66.00;;;;;;5038955;28;20025;-73
2021/04/15 01:03:24;;;;;;;7.55;4.82;;;6.10;64.20;;;;;;5038813;28;20075;-73
2021/04/15 01:05:50;;;;;;;5.95;4.18;;;6.10;65.10;;;;;;5038536;28;20033;-73
2021/04/15 01:08:16;;;;;;;6.72;4.45;;;6.10;65.00;;;;;;5038751;28;20290;-73
2021/04/15 01:11:26;;;;;;;8.13;4.88;;;6.10;63.40;;;;;;5038764;28;20147;-73
2021/04/15 01:13:55;;;;;;;6.30;4.40;;;6.10;63.80;;;;;;5038702;28;20037;-73
2021/04/15 01:16:56;;;;;;;5.30;4.22;;;6.00;65.00;;;;;;5038325;28;20384;-73
2021/04/15 01:19:56;;;;;;;6.68;3.88;;;5.70;66.60;;;;;;5037542;28;20037;-73
2021/04/15 01:22:42;;;;;;;6.45;4.07;;;5.60;68.00;;;;;;5036541;28;20121;-73
2021/04/15 01:25:40;;;;;;;7.22;4.97;;;5.50;68.50;;;;;;5038014;28;20441;-73
2021/04/15 01:28:35;;;;;;;5.65;4.25;;;5.50;70.70;;;;;;5038048;28;20303;-73
2021/04/15 01:31:45;;;;;;;7.90;4.85;;;5.60;70.60;;;;;;5037957;28;20291;-73
2021/04/15 01:34:31;;;;;;;6.15;4.20;;;5.70;67.80;;;;;;5037597;28;20116;-73
2021/04/15 01:37:34;;;;;;;4.97;4.07;;;5.70;69.30;;;;;;5037949;28;20104;-73
2021/04/15 01:40:13;;;;;;;6.43;4.43;;;5.70;71.80;;;;;;5037408;28;20421;-73
2021/04/15 01:42:48;;;;;;;7.85;4.95;;;5.70;70.30;;;;;;5038184;28;20033;-73
2021/04/15 01:45:15;;;;;;;7.13;4.80;;;5.70;69.40;;;;;;5037712;28;20421;-73
2021/04/15 01:47:47;;;;;;;5.90;4.72;;;5.60;68.60;;;;;;5037971;28;20018;-73
2021/04/15 01:50:38;;;;;;;5.88;4.50;;;5.50;67.70;;;;;;5037692;28;20022;-73
2021/04/15 01:53:10;;;;;;;6.88;4.97;;;5.30;68.70;;;;;;5036887;28;20109;-73
2021/04/15 01:55:48;;;;;;;7.88;4.57;;;5.30;68.80;;;;;;5037836;28;20056;-73
2021/04/15 01:58:25;;;;;;;6.93;4.97;;;5.20;69.00;;;;;;5037885;28;20026;-73
2021/04/15 02:00:58;;;;;;;9.10;5.18;;;5.20;68.90;;;;;;5037776;28;20025;-72
2021/04/15 02:03:28;;;;;;;8.57;5.30;;;5.10;69.20;;;;;;5037363;28;20075;-73
2021/04/15 02:06:03;;;;;;;8.55;4.72;;;5.00;70.60;;;;;;5037690;28;20083;-73
2021/04/15 02:08:36;;;;;;;6.97;5.00;;;5.20;68.60;;;;;;5037625;28;20036;-73
2021/04/15 02:11:08;;;;;;;6.57;5.30;;;5.20;69.40;;;;;;5037258;28;20025;-73
2021/04/15 02:13:36;;;;;;;6.60;4.78;;;5.30;69.40;;;;;;5037221;28;20441;-73
2021/04/15 02:16:06;;;;;;;7.82;5.45;;;5.30;68.20;;;;;;5037483;28;20033;-73
2021/04/15 02:18:50;;;;;;;7.82;5.05;;;5.40;68.80;;;;;;5036105;28;20405;-73
2021/04/15 02:21:33;;;;;;;6.72;4.65;;;5.50;69.50;;;;;;5037459;28;20026;-73
2021/04/15 02:24:16;;;;;;;6.97;5.35;;;5.40;68.90;;;;;;5037402;28;20069;-73
2021/04/15 02:26:42;;;;;;;5.72;4.65;;;5.30;67.20;;;;;;5036883;28;20144;-73
2021/04/15 02:29:27;;;;;;;6.88;5.22;;;5.20;69.20;;;;;;5037315;28;20045;-73
2021/04/15 02:31:58;;;;;;;6.28;4.45;;;5.00;69.50;;;;;;5037011;28;20030;-73
2021/04/15 02:34:31;;;;;;;6.95;4.63;;;5.00;69.80;;;;;;5037139;28;20075;-73
2021/04/15 02:37:05;;;;;;;7.15;5.20;;;4.80;68.10;;;;;;5036901;28;20025;-73
2021/04/15 02:39:34;;;;;;;7.85;5.43;;;4.70;68.20;;;;;;5037213;28;20029;-72
2021/04/15 02:42:09;;;;;;;9.50;5.00;;;4.60;68.50;;;;;;5035961;28;20029;-73
2021/04/15 02:44:48;;;;;;;6.93;5.20;;;4.50;69.10;;;;;;5036976;28;20025;-73
2021/04/15 02:47:28;;;;;;;6.55;4.82;;;4.60;71.40;;;;;;5036995;28;20033;-73
2021/04/15 02:49:56;;;;;;;7.75;4.93;;;4.60;71.20;;;;;;5037067;28;20025;-73
2021/04/15 02:52:26;;;;;;;8.25;5.18;;;4.70;70.30;;;;;;5036667;28;20029;-73
2021/04/15 02:55:05;;;;;;;6.82;4.80;;;4.70;70.40;;;;;;5037051;28;20033;-72
2021/04/15 02:57:47;;;;;;;13.07;5.65;;;4.80;68.50;;;;;;5036599;28;20033;-73
2021/04/15 03:00:21;;;;;;;7.05;4.53;;;4.90;68.00;;;;;;5036646;28;20479;-72
2021/04/15 03:03:12;;;;;;;8.15;5.18;;;4.90;67.90;;;;;;5036953;28;20336;-73
2021/04/15 03:05:42;;;;;;;7.35;4.43;;;5.00;68.00;;;;;;5035999;28;20087;-73
2021/04/15 03:08:10;;;;;;;6.38;4.47;;;5.00;67.40;;;;;;5036467;28;20037;-72
2021/04/15 03:10:45;;;;;;;5.78;4.80;;;5.00;66.90;;;;;;5036884;28;20037;-72
2021/04/15 03:13:18;;;;;;;5.95;4.72;;;5.10;68.40;;;;;;5036548;28;20109;-72
2021/04/15 03:15:51;;;;;;;5.50;4.60;;;5.10;67.20;;;;;;5036764;28;20022;-72
2021/04/15 03:18:31;;;;;;;6.57;4.68;;;5.10;67.10;;;;;;5036416;28;20413;-72
2021/04/15 03:21:05;;;;;;;6.25;4.47;;;5.20;68.00;;;;;;5036434;28;20025;-72
2021/04/15 03:23:53;;;;;;;6.47;4.63;;;5.30;67.30;;;;;;5036539;28;20041;-73
2021/04/15 03:26:41;;;;;;;7.25;5.35;;;5.20;68.50;;;;;;5036284;28;20045;-73
2021/04/15 03:29:28;;;;;;;7.63;4.75;;;5.20;69.00;;;;;;5036704;28;20041;-73
2021/04/15 03:32:15;;;;;;;6.18;4.95;;;5.10;68.50;;;;;;5036709;28;20071;-72
2021/04/15 03:34:57;;;;;;;6.13;5.03;;;5.10;69.20;;;;;;5036581;28;20034;-72
2021/04/15 03:37:38;;;;;;;5.10;4.60;;;5.00;69.00;;;;;;5036572;28;20030;-73
2021/04/15 03:40:08;;;;;;;6.88;4.78;;;5.00;69.30;;;;;;5036256;28;20116;-72
2021/04/15 03:42:44;;;;;;;6.90;5.10;;;5.00;69.00;;;;;;5036537;28;20448;-72
2021/04/15 03:45:20;;;;;;;6.75;4.78;;;5.10;68.80;;;;;;5036454;28;20421;-73
2021/04/15 03:48:02;;;;;;;6.18;4.90;;;5.10;68.90;;;;;;5036458;28;20060;-73
2021/04/15 03:50:41;;;;;;;7.60;5.13;;;5.10;68.90;;;;;;5036199;28;20029;-72
2021/04/15 03:53:10;;;;;;;6.55;4.75;;;5.10;68.30;;;;;;5038040;28;20414;-72
2021/04/15 03:55:46;;;;;;;5.97;4.40;;;5.20;68.30;;;;;;5040055;28;20025;-73
2021/04/15 03:58:27;;;;;;;5.78;4.75;;;5.20;68.10;;;;;;5039848;28;20029;-72
2021/04/15 04:01:00;;;;;;;5.65;4.40;;;5.20;69.20;;;;;;5040062;28;20051;-72
2021/04/15 04:03:28;;;;;;;5.28;4.28;;;5.40;68.60;;;;;;5039679;28;20303;-72
2021/04/15 04:05:59;;;;;;;7.28;3.90;;;5.50;69.60;;;;;;5039958;28;20029;-72
2021/04/15 04:08:50;;;;;;;5.82;3.80;;;5.50;71.80;;;;;;5039855;28;20029;-73
2021/04/15 04:11:19;;;;;;;9.40;5.22;;;5.40;69.50;;;;;;5039550;28;20026;-72
2021/04/15 04:13:53;;;;;;;7.57;4.50;;;5.30;68.40;;;;;;5039487;28;20025;-72
2021/04/15 04:16:37;;;;;;;9.98;4.07;;;5.30;70.90;;;;;;5039814;28;20025;-72
2021/04/15 04:19:06;;;;;;;5.68;4.28;;;5.30;72.40;;;;;;5039748;28;20317;-73
2021/04/15 04:21:58;;;;;;;5.43;4.05;;;5.30;73.90;;;;;;5039630;28;20029;-73
2021/04/15 04:24:35;;;;;;;4.95;3.72;;;5.30;73.40;;;;;;5039652;28;20037;-73
2021/04/15 04:27:18;;;;;;;7.35;4.25;;;5.20;73.20;;;;;;5039533;28;20034;-72
2021/04/15 04:30:02;;;;;;;5.57;3.95;;;5.10;73.30;;;;;;5039183;28;20028;-73
2021/04/15 04:32:29;;;;;;;5.00;4.00;;;5.10;74.20;;;;;;5039236;28;20026;-72
2021/04/15 04:34:57;;;;;;;6.03;4.20;;;5.10;73.90;;;;;;5039354;28;20025;-72
2021/04/15 04:37:36;;;;;;;5.30;4.57;;;5.20;73.50;;;;;;5039050;28;20111;-73
2021/04/15 04:40:06;;;;;;;6.70;4.28;;;5.20;74.00;;;;;;5039339;28;20030;-72
2021/04/15 04:42:47;;;;;;;5.40;3.88;;;5.30;74.20;;;;;;5038993;28;20134;-72
2021/04/15 04:45:17;;;;;;;5.15;4.15;;;5.30;75.30;;;;;;5039206;28;20104;-73
2021/04/15 04:48:05;;;;;;;5.28;4.28;;;5.30;74.10;;;;;;5039090;28;20040;-72
2021/04/15 04:50:31;;;;;;;5.90;4.32;;;5.30;75.70;;;;;;5039070;28;20413;-72
2021/04/15 04:53:01;;;;;;;6.68;4.07;;;5.30;74.30;;;;;;5038810;28;20064;-73
2021/04/15 04:55:48;;;;;;;7.40;3.92;;;5.30;75.00;;;;;;5038651;28;20030;-72
2021/04/15 04:58:17;;;;;;;5.63;4.47;;;5.30;73.80;;;;;;5038762;28;20025;-72
2021/04/15 05:00:55;;;;;;;6.22;3.88;;;5.30;71.10;;;;;;5038677;28;20421;-72
2021/04/15 05:03:23;;;;;;;4.97;3.95;;;5.30;70.70;;;;;;5038728;28;20049;-73
2021/04/15 05:05:58;;;;;;;8.40;4.20;;;5.20;71.10;;;;;;5038218;28;20314;-72
2021/04/15 05:08:26;;;;;;;4.88;3.50;;;5.20;71.60;;;;;;5038782;28;20026;-73
2021/04/15 05:10:54;;;;;;;5.55;3.63;;;5.30;72.20;;;;;;5038520;28;20437;-73
2021/04/15 05:13:30;;;;;;;9.70;4.03;;;5.30;71.50;;;;;;5038660;28;20025;-72
2021/04/15 05:16:00;;;;;;;4.80;3.30;;;5.20;72.20;;;;;;5038433;28;20032;-72
2021/04/15 05:18:26;;;;;;;5.63;3.83;;;5.30;69.90;;;;;;5038658;28;20053;-72
2021/04/15 05:21:00;;;;;;;4.68;3.35;;;5.40;70.10;;;;;;5038628;28;20073;-73
2021/04/15 05:23:35;;;;;;;4.25;2.83;;;5.50;70.40;;;;;;5038501;28;20037;-73
2021/04/15 05:26:06;;;;;;;4.78;3.20;;;5.50;72.20;;;;;;5037997;28;20087;-73
2021/04/15 05:28:35;;;;;;;4.82;3.35;;;5.60;71.20;;;;;;5038016;28;20045;-73
2021/04/15 05:31:05;;;;;;;3.67;2.58;;;5.60;70.90;;;;;;5038187;28;20317;-73
2021/04/15 05:33:33;;;;;;;4.97;2.90;;;5.60;68.90;;;;;;5038014;28;20025;-73
2021/04/15 05:36:02;;;;;;;4.00;2.97;;;5.50;70.20;;;;;;5038301;28;20052;-73
2021/04/15 05:38:35;;;;;;;4.03;2.70;;;5.30;70.90;;;;;;5037967;28;20022;-73
2021/04/15 05:41:05;;;;;;;3.33;2.55;;;5.30;70.50;;;;;;5038238;28;20041;-72
2021/04/15 05:43:44;;;;;;;4.35;2.65;;;5.30;70.20;;;;;;5037781;28;20083;-73
2021/04/15 05:46:16;;;;;;;3.72;2.55;;;5.30;71.60;;;;;;5037841;28;20437;-73
2021/04/15 05:48:43;;;;;;;4.10;2.47;;;5.30;71.60;;;;;;5037670;28;20082;-72
2021/04/15 05:51:21;;;;;;;2.35;2.13;;;5.50;72.40;;;;;;5038034;28;20018;-72
2021/04/15 05:54:03;;;;;;;4.03;2.38;;;5.60;70.50;;;;;;5037961;28;20117;-73
2021/04/15 05:56:34;;;;;;;4.15;2.40;;;5.60;70.10;;;;;;5037938;28;20108;-73
2021/04/15 05:59:46;;;;;;;3.28;2.10;;;5.50;71.50;;;;;;5037871;28;20029;-73
2021/04/15 06:02:30;;;;;;;3.47;2.25;;;5.50;72.00;;;;;;5037825;28;20029;-73
2021/04/15 06:05:04;;;;;;;5.97;2.47;;;5.40;72.40;;;;;;5037402;28;20029;-73
2021/04/15 06:07:30;;;;;;;5.68;2.33;;;5.40;73.40;;;;;;5037629;28;20108;-72
2021/04/15 06:09:56;;;;;;;3.90;2.33;;;5.30;73.30;;;;;;5037629;28;20363;-72
2021/04/15 06:12:54;;;;;;;4.20;2.25;;;5.20;73.90;;;;;;5037282;28;20319;-73
2021/04/15 06:15:25;;;;;;;4.53;2.40;;;5.20;74.50;;;;;;5035895;28;20124;-73
2021/04/15 06:18:12;;;;;;;3.10;2.53;;;5.20;75.10;;;;;;5037545;28;20053;-72
2021/04/15 06:20:42;;;;;;;4.45;2.50;;;5.20;75.70;;;;;;5037191;28;20034;-73
2021/04/15 06:23:26;;;;;;;5.85;2.78;;;5.20;75.80;;;;;;5037413;28;20034;-72
2021/04/15 06:25:54;;;;;;;3.50;2.58;;;5.40;75.80;;;;;;5036992;28;20361;-72
2021/04/15 06:28:24;;;;;;;3.55;2.70;;;5.40;76.10;;;;;;5036935;28;20026;-73
2021/04/15 06:31:16;;;;;;;5.60;2.50;;;5.50;75.30;;;;;;5037342;28;20040;-73
2021/04/15 06:33:43;;;;;;;5.45;2.92;;;5.60;74.40;;;;;;5036927;28;20021;-73
2021/04/15 06:36:25;;;;;;;7.75;2.60;;;5.50;74.10;;;;;;5036941;28;20485;-72
2021/04/15 06:39:18;;;;;;;5.55;2.60;;;5.50;74.80;;;;;;5037220;28;20029;-73
2021/04/15 06:42:34;;;;;;;4.25;2.63;;;5.60;75.10;;;;;;5037148;28;20445;-73
2021/04/15 06:45:07;;;;;;;3.72;2.72;;;5.60;75.00;;;;;;5037093;28;20025;-73
2021/04/15 06:47:52;;;;;;;6.18;2.78;;;5.60;74.80;;;;;;5037050;28;20037;-73
2021/04/15 06:50:36;;;;;;;3.75;2.60;;;5.60;74.30;;;;;;5037038;28;20033;-73
2021/04/15 06:53:39;;;;;;;4.53;2.20;;;5.60;73.60;;;;;;5036665;28;20311;-73
2021/04/15 06:56:30;;;;;;;4.80;2.60;;;5.70;74.60;;;;;;5036650;28;20030;-73
2021/04/15 06:59:53;;;;;;;5.22;2.70;;;5.70;75.30;;;;;;5037001;28;20033;-73
2021/04/15 07:02:36;;;;;;;3.80;2.42;;;5.80;76.50;;;;;;5035058;28;20029;-73
2021/04/15 07:05:20;;;;;;;3.92;2.53;;;5.90;74.40;;;;;;5034763;28;20041;-73
2021/04/15 07:08:10;;;;;;;4.60;2.63;;;6.00;74.70;;;;;;5036145;28;20334;-72
2021/04/15 07:11:05;;;;;;;5.25;3.30;;;6.00;75.50;;;;;;5036870;28;20022;-73
2021/04/15 07:14:04;;;;;;;2.95;2.38;;;6.10;75.20;;;;;;5035479;28;20060;-73
2021/04/15 07:16:56;;;;;;;4.95;2.70;;;6.20;74.40;;;;;;5036497;28;20025;-73
2021/04/15 07:19:55;;;;;;;7.90;2.47;;;6.30;74.40;;;;;;5036404;28;20462;-73
2021/04/15 07:22:42;;;;;;;3.42;2.60;;;6.20;75.80;;;;;;5036751;28;20041;-73
2021/04/15 07:25:15;;;;;;;2.95;2.30;;;6.20;75.20;;;;;;5036553;28;20045;-73
2021/04/15 07:28:01;;;;;;;4.75;2.42;;;6.20;74.00;;;;;;5037926;28;20056;-73
2021/04/15 07:31:06;;;;;;;4.70;2.83;;;6.30;74.40;;;;;;5040721;28;20017;-73
2021/04/15 07:34:10;;;;;;;4.47;2.75;;;6.40;75.00;;;;;;5039337;28;20029;-73
2021/04/15 07:37:02;;;;;;;3.70;2.33;;;6.60;74.40;;;;;;5040546;28;20041;-73
2021/04/15 07:39:47;;;;;;;9.98;2.40;;;6.70;73.10;;;;;;5039328;28;20088;-73
2021/04/15 07:42:38;;;;;;;3.88;2.58;;;6.90;73.60;;;;;;5039190;28;20075;-73
2021/04/15 07:45:10;;;;;;;7.03;2.60;;;6.90;72.00;;;;;;5040062;28;20333;-73
2021/04/15 07:48:17;;;;;;;3.58;2.60;;;6.80;72.70;;;;;;5040014;28;20108;-73
2021/04/15 07:51:07;;;;;;;4.97;2.50;;;6.80;72.10;;;;;;5040008;28;20083;-73
2021/04/15 07:54:00;;;;;;;3.85;2.85;;;6.90;72.80;;;;;;5040157;28;20045;-73
2021/04/15 07:57:03;;;;;;;3.47;2.47;;;7.00;73.70;;;;;;5040201;28;20090;-73
2021/04/15 07:59:33;;;;;;;5.50;2.80;;;7.10;71.20;;;;;;5040108;28;20087;-73
2021/04/15 08:02:20;;;;;;;4.85;3.03;;;7.30;73.10;;;;;;5040351;28;20313;-73
2021/04/15 08:05:09;;;;;;;4.32;2.53;;;7.40;73.60;;;;;;5039972;28;20357;-73
2021/04/15 08:07:46;;;;;;;3.15;2.50;;;7.60;69.90;;;;;;5039602;28;20026;-73
2021/04/15 08:10:14;;;;;;;3.88;2.42;;;7.60;69.00;;;;;;5039649;28;20026;-73
2021/04/15 08:12:58;;;;;;;3.72;2.58;;;7.60;67.70;;;;;;5039897;28;20029;-73
2021/04/15 08:15:50;;;;;;;3.67;2.40;;;7.70;68.90;;;;;;5039418;28;20406;-73
2021/04/15 08:18:41;;;;;;;3.65;2.13;;;7.70;71.70;;;;;;5039488;28;20025;-73
2021/04/15 08:21:16;;;;;;;4.20;2.45;;;7.70;71.10;;;;;;5039740;28;20048;-73
2021/04/15 08:24:01;;;;;;;3.55;2.20;;;7.80;65.40;;;;;;5039439;28;20041;-73
2021/04/15 08:27:21;;;;;;;5.10;2.55;;;7.90;67.70;;;;;;5039228;28;20378;-73
2021/04/15 08:30:08;;;;;;;3.88;2.40;;;7.80;66.80;;;;;;5038922;28;20067;-73
2021/04/15 08:32:46;;;;;;;5.97;2.50;;;7.80;67.50;;;;;;5039216;28;20033;-73
2021/04/15 08:35:49;;;;;;;4.13;2.50;;;7.80;67.80;;;;;;5039390;28;20076;-73
2021/04/15 08:38:48;;;;;;;2.58;2.13;;;7.90;66.50;;;;;;5038675;28;20123;-73
2021/04/15 08:41:39;;;;;;;3.55;2.40;;;8.00;66.30;;;;;;5038942;28;20136;-73
2021/04/15 08:44:42;;;;;;;3.85;2.40;;;8.10;67.50;;;;;;5039225;28;20017;-73
2021/04/15 08:47:24;;;;;;;2.88;2.17;;;8.20;66.70;;;;;;5038841;28;20041;-73
2021/04/15 08:50:16;;;;;;;3.70;1.98;;;8.30;58.60;;;;;;5039248;28;20040;-73
2021/04/15 08:52:55;;;;;;;3.67;1.88;;;8.20;58.80;;;;;;5039183;28;20037;-72
2021/04/15 08:55:31;;;;;;;3.38;2.25;;;8.10;58.30;;;;;;5038764;28;20140;-73
2021/04/15 08:58:34;;;;;;;3.17;2.15;;;8.00;58.10;;;;;;5038791;28;20045;-73
2021/04/15 09:01:36;;;;;;;4.97;2.67;;;8.10;63.30;;;;;;5038701;28;20029;-73
2021/04/15 09:04:05;;;;;;;5.35;2.55;;;8.30;65.40;;;;;;5038537;28;20049;-73
2021/04/15 09:06:39;;;;;;;3.25;2.50;;;8.30;65.10;;;;;;5038883;28;20045;-73
2021/04/15 09:09:23;;;;;;;6.75;2.70;;;8.40;64.20;;;;;;5038532;28;20439;-73
2021/04/15 09:12:10;;;;;;;3.63;2.47;;;8.60;65.00;;;;;;5038487;28;20109;-73
2021/04/15 09:15:10;;;;;;;3.70;2.58;;;8.90;58.60;;;;;;5038737;28;20039;-73
2021/04/15 09:17:52;;;;;;;3.15;2.05;;;9.20;57.90;;;;;;5038399;28;20072;-72
2021/04/15 09:20:34;;;;;;;6.32;2.13;;;10.30;57.10;;;;;;5038676;28;20030;-72
2021/04/15 09:23:18;;;;;;;3.55;1.73;;;11.40;54.40;;;;;;5038585;28;20029;-73
2021/04/15 09:26:06;;;;;;;3.88;2.15;;;11.90;52.20;;;;;;5038007;28;20053;-72
2021/04/15 09:28:34;;;;;;;2.17;1.80;;;12.50;47.50;;;;;;5038376;28;20034;-72
2021/04/15 09:31:17;;;;;;;3.15;2.08;;;13.20;48.00;;;;;;5038436;28;20104;-73
2021/04/15 09:33:58;;;;;;;3.45;1.60;;;13.90;47.40;;;;;;5038298;28;20325;-73
2021/04/15 09:36:44;;;;;;;4.50;2.08;;;13.80;46.20;;;;;;5038308;28;20113;-73
2021/04/15 09:39:32;;;;;;;4.03;1.90;;;13.30;44.20;;;;;;5038244;28;20105;-72
2021/04/15 09:42:22;;;;;;;4.13;1.90;;;12.70;48.60;;;;;;5038214;28;20052;-72
2021/04/15 09:45:11;;;;;;;4.43;2.15;;;12.00;46.00;;;;;;5038103;28;20108;-72
2021/04/15 09:47:40;;;;;;;3.28;2.00;;;12.20;47.40;;;;;;5038061;28;20033;-72
2021/04/15 09:50:26;;;;;;;2.95;2.33;;;12.80;48.40;;;;;;5037336;28;20021;-73
2021/04/15 09:53:25;;;;;;;4.03;2.15;;;13.70;48.70;;;;;;5038052;28;20032;-72
2021/04/15 09:56:28;;;;;;;5.55;1.80;;;14.00;47.30;;;;;;5037660;28;20112;-73
2021/04/15 09:59:23;;;;;;;5.53;2.10;;;13.50;45.60;;;;;;5037904;28;20041;-73
2021/04/15 10:02:19;;;;;;;3.17;1.67;;;13.20;41.60;;;;;;5037605;28;20021;-72
2021/04/15 10:05:01;;;;;;;3.10;1.90;;;12.70;44.00;;;;;;5037115;28;20049;-73
2021/04/15 10:07:49;;;;;;;3.55;1.60;;;12.50;45.60;;;;;;5037648;28;20041;-73
2021/04/15 10:10:32;;;;;;;2.75;1.85;;;13.10;46.30;;;;;;5037352;28;20052;-73
2021/04/15 10:13:13;;;;;;;3.67;2.22;;;13.70;42.30;;;;;;5036693;28;20018;-73
2021/04/15 10:16:06;;;;;;;3.13;1.40;;;13.90;43.20;;;;;;5042494;28;20077;-73
2021/04/15 10:18:43;;;;;;;3.67;1.95;;;14.10;44.60;;;;;;5037512;28;20040;-73
2021/04/15 10:21:24;;;;;;;4.93;1.80;;;14.00;44.30;;;;;;5037214;28;20036;-72
2021/04/15 10:24:01;;;;;;;2.83;2.15;;;14.00;47.40;;;;;;5037243;28;20037;-73
2021/04/15 10:26:29;;;;;;;3.00;2.30;;;13.60;42.50;;;;;;5037044;28;20049;-73
2021/04/15 10:29:06;;;;;;;6.75;2.20;;;13.40;47.60;;;;;;5037276;28;20092;-72
2021/04/15 10:31:55;;;;;;;4.45;1.88;;;13.10;47.70;;;;;;5037321;28;20022;-72
2021/04/15 10:34:21;;;;;;;3.20;2.00;;;12.70;47.30;;;;;;5036946;28;20156;-72
2021/04/15 10:37:18;;;;;;;2.90;1.77;;;11.80;47.70;;;;;;5037249;28;20112;-72
2021/04/15 10:39:46;;;;;;;3.25;1.92;;;11.20;48.00;;;;;;5037234;28;20033;-72
2021/04/15 10:43:08;;;;;;;4.85;2.30;;;11.10;50.30;;;;;;5037158;28;20029;-72
2021/04/15 10:46:04;;;;;;;3.05;2.30;;;11.10;51.20;;;;;;5054869;28;20076;-72
2021/04/15 10:49:07;;;;;;;3.20;2.35;;;12.00;51.60;;;;;;5054871;28;20033;-72
2021/04/15 10:51:46;;;;;;;5.45;2.28;;;13.50;48.70;;;;;;5037039;28;20029;-73
2021/04/15 10:54:33;;;;;;;5.03;2.38;;;14.40;46.50;;;;;;5036904;28;20437;-72
2021/04/15 10:57:18;;;;;;;5.63;2.30;;;15.10;46.90;;;;;;5037032;28;20037;-73
2021/04/15 10:59:47;;;;;;;5.07;2.03;;;15.50;42.40;;;;;;5036880;28;20432;-73
2021/04/15 11:03:10;;;;;;;3.90;2.92;;;15.90;46.20;;;;;;5036194;28;20026;-73
2021/04/15 11:05:40;;;;;;;2.20;1.77;;;16.00;43.00;;;;;;5020363;28;20031;-73
2021/04/15 11:08:10;;;;;;;2.45;1.75;;;16.30;42.30;;;;;;5036495;28;20451;-73
2021/04/15 11:10:37;;;;;;;2.67;1.70;;;16.20;40.80;;;;;;5036857;28;20313;-73
2021/04/15 11:13:07;;;;;;;3.95;2.35;;;16.50;41.70;;;;;;5036480;28;20424;-73
2021/04/15 11:15:48;;;;;;;3.72;2.28;;;16.10;42.00;;;;;;5036444;28;20025;-73
2021/04/15 11:18:29;;;;;;;4.60;2.40;;;15.70;44.20;;;;;;5036495;28;20452;-73
2021/04/15 11:21:14;;;;;;;3.25;2.38;;;15.70;42.30;;;;;;5036774;28;20075;-73
2021/04/15 11:23:41;;;;;;;3.13;1.92;;;15.60;42.90;;;;;;5036199;28;20034;-73
2021/04/15 11:26:23;;;;;;;2.97;2.10;;;15.50;44.00;;;;;;5036312;28;20349;-73
2021/04/15 11:28:51;;;;;;;3.50;1.85;;;15.30;45.90;;;;;;5036269;28;20048;-73
2021/04/15 11:31:28;;;;;;;3.55;2.08;;;15.40;47.70;;;;;;5036337;28;20431;-72
2021/04/15 11:34:24;;;;;;;3.47;1.90;;;15.40;48.80;;;;;;5036219;28;20373;-73
2021/04/15 11:37:19;;;;;;;4.32;2.05;;;15.60;45.10;;;;;;5036683;28;20029;-73
2021/04/15 11:39:45;;;;;;;6.10;2.10;;;15.40;48.00;;;;;;5036583;28;20076;-72
2021/04/15 11:42:14;;;;;;;4.25;2.45;;;15.20;44.10;;;;;;5036274;28;20064;-73
2021/04/15 11:44:55;;;;;;;3.53;2.28;;;15.00;46.00;;;;;;5036173;28;20369;-73
2021/04/15 11:47:28;;;;;;;4.65;2.60;;;14.60;43.20;;;;;;5036501;28;20030;-73
2021/04/15 11:50:13;;;;;;;3.85;2.20;;;13.50;42.10;;;;;;5036167;28;20029;-73
2021/04/15 11:52:41;;;;;;;5.00;2.50;;;13.40;46.30;;;;;;5036499;28;20036;-72
2021/04/15 11:55:20;;;;;;;3.00;2.58;;;13.90;47.90;;;;;;5036491;28;20022;-73
2021/04/15 11:57:59;;;;;;;3.90;2.08;;;14.10;46.50;;;;;;5035979;28;20045;-73
2021/04/15 12:00:34;;;;;;;3.70;2.40;;;13.90;45.70;;;;;;5036411;28;20109;-72
2021/04/15 12:03:00;;;;;;;5.80;2.55;;;13.30;46.30;;;;;;5036621;28;20056;-72
2021/04/15 12:05:29;;;;;;;3.63;2.25;;;12.70;47.60;;;;;;5036326;28;20029;-73
2021/04/15 12:08:09;;;;;;;2.88;1.98;;;12.20;45.00;;;;;;5035925;28;20029;-73
2021/04/15 12:11:29;;;;;;;2.40;2.05;;;12.00;51.50;;;;;;5036294;28;20360;-73
2021/04/15 12:14:08;;;;;;;2.78;2.30;;;11.60;49.00;;;;;;5038534;28;20041;-72
2021/04/15 12:16:58;;;;;;;3.28;2.40;;;11.30;47.70;;;;;;5039831;28;20018;-73
2021/04/15 12:19:51;;;;;;;4.60;2.40;;;11.30;49.00;;;;;;5039487;28;20034;-73
2021/04/15 12:22:25;;;;;;;4.55;2.65;;;11.40;52.60;;;;;;5039775;28;20028;-72
2021/04/15 12:25:01;;;;;;;3.30;2.30;;;11.30;52.80;;;;;;5038275;28;20041;-72
2021/04/15 12:27:29;;;;;;;3.70;2.40;;;11.20;51.50;;;;;;5039624;28;20036;-72
2021/04/15 12:30:17;;;;;;;5.25;2.67;;;11.40;51.60;;;;;;5039639;28;20068;-73
2021/04/15 12:33:08;;;;;;;5.47;2.90;;;11.60;51.00;;;;;;5039255;28;20083;-73
2021/04/15 12:35:51;;;;;;;4.55;2.85;;;11.70;48.10;;;;;;5039175;28;20052;-72
2021/04/15 12:38:40;;;;;;;3.92;2.50;;;11.40;52.90;;;;;;5039158;28;20038;-73
2021/04/15 12:41:09;;;;;;;4.72;2.80;;;11.20;51.30;;;;;;5039122;28;20409;-73
2021/04/15 12:43:41;;;;;;;4.85;3.60;;;11.10;53.10;;;;;;5039273;28;20325;-72
2021/04/15 12:46:13;;;;;;;4.00;2.70;;;11.00;52.10;;;;;;5038935;28;20036;-73
2021/04/15 12:49:06;;;;;;;3.60;2.40;;;11.30;52.10;;;;;;5039203;28;20317;-73
2021/04/15 12:51:41;;;;;;;6.07;3.10;;;11.60;56.30;;;;;;5040406;28;20124;-73
2021/04/15 12:54:22;;;;;;;6.07;2.92;;;11.80;49.90;;;;;;5038908;28;20049;-72
2021/04/15 12:56:51;;;;;;;3.78;2.80;;;11.30;50.70;;;;;;5039161;28;20056;-72
2021/04/15 12:59:42;;;;;;;3.92;2.92;;;10.90;52.20;;;;;;5038770;28;20029;-72
2021/04/15 13:02:31;;;;;;;4.00;2.92;;;11.00;52.30;;;;;;5040557;28;20038;-72
2021/04/15 13:05:10;;;;;;;6.30;3.03;;;11.50;52.40;;;;;;5038544;28;20402;-72
2021/04/15 13:07:41;;;;;;;2.92;2.63;;;12.00;56.00;;;;;;5038844;28;20152;-72
2021/04/15 13:10:12;;;;;;;5.45;2.92;;;12.40;49.30;;;;;;5038592;28;20026;-72
2021/04/15 13:12:42;;;;;;;6.32;3.08;;;12.20;49.60;;;;;;5038779;28;20115;-73
2021/04/15 13:15:28;;;;;;;4.35;3.38;;;11.90;51.10;;;;;;5038366;28;20026;-73
2021/04/15 13:18:06;;;;;;;4.45;3.03;;;11.40;49.90;;;;;;5038434;28;20037;-72
2021/04/15 13:20:32;;;;;;;5.90;3.17;;;11.00;51.80;;;;;;5038394;28;20025;-72
2021/04/15 13:23:09;;;;;;;3.28;2.67;;;10.90;53.90;;;;;;5038512;28;20084;-73
2021/04/15 13:25:50;;;;;;;2.83;2.50;;;10.90;53.60;;;;;;5037216;28;20438;-73
2021/04/15 13:28:16;;;;;;;5.50;3.22;;;10.90;52.90;;;;;;5038409;28;20346;-73
2021/04/15 13:30:42;;;;;;;5.70;3.00;;;11.00;54.60;;;;;;5038161;28;20029;-72
2021/04/15 13:33:17;;;;;;;3.85;2.95;;;11.10;53.60;;;;;;5038108;28;20033;-73
2021/04/15 13:35:57;;;;;;;3.17;2.70;;;11.20;52.00;;;;;;5038139;28;20021;-72
2021/04/15 13:38:37;;;;;;;4.30;2.50;;;11.00;53.30;;;;;;5038003;28;20438;-72
2021/04/15 13:41:10;;;;;;;3.17;2.80;;;11.10;54.70;;;;;;5037981;28;20111;-73
2021/04/15 13:43:46;;;;;;;4.03;2.80;;;11.20;52.40;;;;;;5038119;28;20036;-72
2021/04/15 13:46:21;;;;;;;;;;;11.10;52.80;;;;;;5038633;28;20033;-72
2021/04/15 13:49:00;;;;;;;3.38;2.42;;;11.00;54.60;;;;;;5037718;28;20324;-72
2021/04/15 13:51:34;;;;;;;5.47;3.00;;;11.10;56.10;;;;;;5037794;28;20036;-72
2021/04/15 13:54:07;;;;;;;3.60;2.70;;;11.30;50.70;;;;;;5037808;28;20029;-72
2021/04/15 13:56:57;;;;;;;6.28;3.33;;;11.20;53.00;;;;;;5037710;28;20044;-72
2021/04/15 13:59:38;;;;;;;;;;;;;;;;;;;;;
2021/04/15 14:02:10;;;;;;;5.28;2.80;;;10.80;50.10;;;;;;5037787;28;20026;-72